createdAt,value
2016-05-11T00:00:03.431Z,0
2016-05-11T00:01:03.715Z,0
2016-05-11T00:02:03.842Z,0
2016-05-11T00:03:03.830Z,0
2016-05-11T00:04:03.817Z,0
2016-05-11T00:05:03.803Z,0
2016-05-11T00:06:03.775Z,0
2016-05-11T00:07:03.778Z,0
2016-05-11T00:08:03.593Z,0
2016-05-11T00:09:03.737Z,0
2016-05-11T00:10:03.724Z,0
2016-05-11T00:11:03.694Z,0
2016-05-11T00:12:03.526Z,0
2016-05-11T00:13:03.669Z,0
2016-05-11T00:14:03.655Z,0
2016-05-11T00:15:04.456Z,0
2016-05-11T00:16:03.615Z,0
2016-05-11T00:17:03.586Z,0
2016-05-11T00:18:03.432Z,0
2016-05-11T00:19:03.576Z,0
2016-05-11T00:20:03.547Z,0
2016-05-11T00:21:03.378Z,0
2016-05-11T00:22:03.521Z,0
2016-05-11T00:23:03.524Z,0
2016-05-11T00:24:03.495Z,0
2016-05-11T00:25:03.468Z,0
2016-05-11T00:26:03.470Z,0
2016-05-11T00:27:03.426Z,0
2016-05-11T00:28:03.413Z,0
2016-05-11T00:29:03.400Z,0
2016-05-11T00:30:03.090Z,0
2016-05-11T00:31:03.389Z,0
2016-05-11T00:32:03.345Z,0
2016-05-11T00:33:03.332Z,0
2016-05-11T00:34:03.320Z,0
2016-05-11T00:35:03.306Z,0
2016-05-11T00:36:03.278Z,0
2016-05-11T00:37:03.265Z,0
2016-05-11T00:38:03.095Z,0
2016-05-11T00:39:03.239Z,0
2016-05-11T00:40:03.226Z,0
2016-05-11T00:41:03.197Z,0
2016-05-11T00:42:03.185Z,0
2016-05-11T00:43:03.155Z,0
2016-05-11T00:44:03.144Z,0
2016-05-11T00:45:03.380Z,0
2016-05-11T00:46:02.961Z,0
2016-05-11T00:47:02.949Z,0
2016-05-11T00:48:02.763Z,0
2016-05-11T00:49:02.766Z,0
2016-05-11T00:50:02.894Z,0
2016-05-11T00:51:03.021Z,0
2016-05-11T00:52:02.696Z,0
2016-05-11T00:53:02.995Z,0
2016-05-11T00:54:02.998Z,0
2016-05-11T00:55:02.798Z,0
2016-05-11T00:56:02.816Z,0
2016-05-11T00:57:02.943Z,0
2016-05-11T00:58:02.915Z,0
2016-05-11T00:59:02.731Z,0
2016-05-11T01:00:02.889Z,0
2016-05-11T01:01:02.704Z,0
2016-05-11T01:02:02.831Z,0
2016-05-11T01:03:02.819Z,0
2016-05-11T01:04:02.822Z,0
2016-05-11T01:05:02.793Z,0
2016-05-11T01:06:02.781Z,0
2016-05-11T01:07:02.752Z,0
2016-05-11T01:08:02.739Z,0
2016-05-11T01:09:02.725Z,0
2016-05-11T01:10:02.541Z,0
2016-05-11T01:11:02.684Z,0
2016-05-11T01:12:02.672Z,0
2016-05-11T01:13:02.347Z,0
2016-05-11T01:14:02.661Z,0
2016-05-11T01:15:02.336Z,0
2016-05-11T01:16:02.604Z,0
2016-05-11T01:17:02.436Z,0
2016-05-11T01:18:02.406Z,0
2016-05-11T01:19:02.565Z,0
2016-05-11T01:20:02.599Z,0
2016-05-11T01:21:02.524Z,0
2016-05-11T01:22:02.527Z,0
2016-05-11T01:23:02.498Z,0
2016-05-11T01:24:02.344Z,0
2016-05-11T01:25:02.300Z,0
2016-05-11T01:26:02.288Z,0
2016-05-11T01:27:02.415Z,0
2016-05-11T01:28:02.402Z,0
2016-05-11T01:29:02.390Z,0
2016-05-11T01:30:02.220Z,0
2016-05-11T01:31:02.362Z,0
2016-05-11T01:32:02.334Z,0
2016-05-11T01:33:02.166Z,0
2016-05-11T01:34:02.293Z,0
2016-05-11T01:35:02.124Z,0
2016-05-11T01:36:02.111Z,0
2016-05-11T01:37:02.254Z,0
2016-05-11T01:38:02.225Z,0
2016-05-11T01:39:02.057Z,0
2016-05-11T01:40:02.200Z,0
2016-05-11T01:41:02.171Z,0
2016-05-11T01:42:02.003Z,0
2016-05-11T01:43:02.145Z,0
2016-05-11T01:44:02.117Z,0
2016-05-11T01:45:02.136Z,0
2016-05-11T01:46:02.107Z,0
2016-05-11T01:47:02.062Z,0
2016-05-11T01:48:01.940Z,0
2016-05-11T01:49:02.037Z,0
2016-05-11T01:50:01.868Z,0
2016-05-11T01:51:02.027Z,0
2016-05-11T01:52:01.873Z,0
2016-05-11T01:53:01.969Z,0
2016-05-11T01:54:01.972Z,0
2016-05-11T01:55:01.943Z,0
2016-05-11T01:56:01.774Z,0
2016-05-11T01:57:01.887Z,0
2016-05-11T01:58:01.577Z,0
2016-05-11T01:59:01.704Z,0
2016-05-11T02:00:01.691Z,0
2016-05-11T02:01:01.975Z,0
2016-05-11T02:02:01.650Z,0
2016-05-11T02:03:01.792Z,0
2016-05-11T02:04:01.781Z,0
2016-05-11T02:05:01.612Z,0
2016-05-11T02:06:01.582Z,0
2016-05-11T02:07:01.725Z,0
2016-05-11T02:08:01.697Z,0
2016-05-11T02:09:01.684Z,0
2016-05-11T02:10:01.671Z,0
2016-05-11T02:11:01.486Z,0
2016-05-11T02:12:01.630Z,0
2016-05-11T02:13:01.601Z,0
2016-05-11T02:14:01.588Z,0
2016-05-11T02:15:01.435Z,0
2016-05-11T02:16:01.563Z,0
2016-05-11T02:17:01.534Z,0
2016-05-11T02:18:01.521Z,0
2016-05-11T02:19:01.508Z,0
2016-05-11T02:20:01.339Z,0
2016-05-11T02:21:01.326Z,0
2016-05-11T02:22:01.313Z,0
2016-05-11T02:23:01.144Z,0
2016-05-11T02:24:01.412Z,0
2016-05-11T02:25:01.102Z,0
2016-05-11T02:26:01.214Z,0
2016-05-11T02:27:01.357Z,0
2016-05-11T02:28:01.345Z,0
2016-05-11T02:29:01.316Z,0
2016-05-11T02:30:01.303Z,0
2016-05-11T02:31:01.149Z,0
2016-05-11T02:32:01.262Z,0
2016-05-11T02:33:01.249Z,0
2016-05-11T02:34:01.079Z,0
2016-05-11T02:35:01.207Z,0
2016-05-11T02:36:01.209Z,0
2016-05-11T02:37:01.025Z,0
2016-05-11T02:38:01.153Z,0
2016-05-11T02:39:01.171Z,0
2016-05-11T02:40:00.987Z,0
2016-05-11T02:41:01.114Z,0
2016-05-11T02:42:01.117Z,0
2016-05-11T02:43:01.072Z,0
2016-05-11T02:44:01.075Z,0
2016-05-11T02:45:01.030Z,0
2016-05-11T02:46:00.894Z,0
2016-05-11T02:47:01.005Z,0
2016-05-11T02:48:00.977Z,0
2016-05-11T02:49:00.964Z,0
2016-05-11T02:50:00.935Z,0
2016-05-11T02:51:00.766Z,0
2016-05-11T02:52:00.910Z,0
2016-05-11T02:53:00.740Z,0
2016-05-11T02:54:00.711Z,0
2016-05-11T02:55:00.855Z,0
2016-05-11T02:56:00.685Z,0
2016-05-11T02:57:00.813Z,0
2016-05-11T02:58:00.800Z,0
2016-05-11T02:59:00.772Z,0
2016-05-11T03:00:00.760Z,0
2016-05-11T03:01:00.777Z,0
2016-05-11T03:02:00.436Z,0
2016-05-11T03:03:00.548Z,0
2016-05-11T03:04:00.691Z,0
2016-05-11T03:05:00.662Z,0
2016-05-11T03:06:00.651Z,0
2016-05-11T03:07:00.637Z,0
2016-05-11T03:08:00.609Z,0
2016-05-11T03:09:00.595Z,0
2016-05-11T03:10:00.426Z,0
2016-05-11T03:11:00.553Z,0
2016-05-11T03:12:00.525Z,0
2016-05-11T03:13:00.512Z,0
2016-05-11T03:14:00.359Z,0
2016-05-11T03:15:00.486Z,0
2016-05-11T03:16:00.333Z,0
2016-05-11T03:17:00.445Z,0
2016-05-11T03:18:00.433Z,0
2016-05-11T03:19:00.403Z,0
2016-05-11T03:20:00.391Z,0
2016-05-11T03:21:00.362Z,0
2016-05-11T03:22:00.349Z,0
2016-05-11T03:23:00.321Z,0
2016-05-11T03:24:00.166Z,0
2016-05-11T03:25:00.139Z,0
2016-05-11T03:26:00.282Z,5
2016-05-11T03:27:00.254Z,5
2016-05-11T03:28:00.225Z,5
2016-05-11T03:29:00.243Z,5
2016-05-11T03:30:00.073Z,5
2016-05-11T03:31:00.192Z,5
2016-05-11T03:32:00.203Z,5
2016-05-11T03:33:00.073Z,5
2016-05-11T03:34:00.257Z,5
2016-05-11T03:35:00.268Z,5
2016-05-11T03:36:00.149Z,10
2016-05-11T03:37:00.291Z,10
2016-05-11T03:38:00.308Z,10
2016-05-11T03:39:00.122Z,10
2016-05-11T03:40:00.124Z,15
2016-05-11T03:41:00.107Z,15
2016-05-11T03:42:00.100Z,15
2016-05-11T03:42:59.935Z,15
2016-05-11T03:44:00.224Z,15
2016-05-11T03:45:00.060Z,20
2016-05-11T03:46:00.208Z,20
2016-05-11T03:47:00.025Z,25
2016-05-11T03:48:00.170Z,25
2016-05-11T03:49:00.158Z,25
2016-05-11T03:50:00.132Z,30
2016-05-11T03:51:00.106Z,30
2016-05-11T03:52:00.092Z,35
2016-05-11T03:52:59.940Z,35
2016-05-11T03:54:00.052Z,40
2016-05-11T03:54:59.884Z,40
2016-05-11T03:55:59.871Z,45
2016-05-11T03:57:00.030Z,45
2016-05-11T03:57:59.674Z,50
2016-05-11T03:58:59.974Z,50
2016-05-11T03:59:59.789Z,55
2016-05-11T04:01:00.387Z,55
2016-05-11T04:01:59.905Z,60
2016-05-11T04:02:59.736Z,65
2016-05-11T04:03:59.739Z,65
2016-05-11T04:04:59.709Z,70
2016-05-11T04:05:59.836Z,70
2016-05-11T04:06:59.808Z,70
2016-05-11T04:07:59.640Z,75
2016-05-11T04:08:59.611Z,80
2016-05-11T04:09:59.755Z,80
2016-05-11T04:10:59.600Z,85
2016-05-11T04:11:59.712Z,90
2016-05-11T04:12:59.715Z,100
2016-05-11T04:13:59.672Z,95
2016-05-11T04:14:59.658Z,100
2016-05-11T04:15:59.489Z,105
2016-05-11T04:16:59.632Z,105
2016-05-11T04:17:59.651Z,110
2016-05-11T04:18:59.451Z,115
2016-05-11T04:19:59.562Z,120
2016-05-11T04:20:59.565Z,120
2016-05-11T04:21:59.568Z,125
2016-05-11T04:22:59.523Z,130
2016-05-11T04:23:59.495Z,135
2016-05-11T04:24:59.482Z,135
2016-05-11T04:25:59.454Z,140
2016-05-11T04:26:59.488Z,145
2016-05-11T04:27:59.428Z,145
2016-05-11T04:28:59.243Z,150
2016-05-11T04:29:59.386Z,155
2016-05-11T04:30:59.389Z,155
2016-05-11T04:31:59.360Z,155
2016-05-11T04:32:59.332Z,160
2016-05-11T04:33:59.319Z,160
2016-05-11T04:34:59.305Z,165
2016-05-11T04:35:59.121Z,170
2016-05-11T04:36:59.108Z,175
2016-05-11T04:37:59.251Z,175
2016-05-11T04:38:59.067Z,180
2016-05-11T04:39:59.210Z,180
2016-05-11T04:40:59.181Z,185
2016-05-11T04:41:59.013Z,185
2016-05-11T04:42:59.155Z,185
2016-05-11T04:43:59.143Z,190
2016-05-11T04:44:58.974Z,190
2016-05-11T04:45:58.804Z,190
2016-05-11T04:46:59.088Z,190
2016-05-11T04:47:59.075Z,190
2016-05-11T04:48:59.046Z,190
2016-05-11T04:49:58.877Z,195
2016-05-11T04:50:58.849Z,195
2016-05-11T04:51:58.992Z,195
2016-05-11T04:52:58.963Z,195
2016-05-11T04:53:58.951Z,200
2016-05-11T04:54:58.968Z,200
2016-05-11T04:55:58.769Z,200
2016-05-11T04:56:58.895Z,205
2016-05-11T04:57:58.884Z,205
2016-05-11T04:58:58.714Z,210
2016-05-11T04:59:58.701Z,210
2016-05-11T05:00:58.688Z,215
2016-05-11T05:01:58.801Z,215
2016-05-11T05:02:58.631Z,220
2016-05-11T05:03:58.837Z,220
2016-05-11T05:04:58.778Z,220
2016-05-11T05:05:58.748Z,225
2016-05-11T05:06:58.564Z,225
2016-05-11T05:07:58.566Z,230
2016-05-11T05:08:58.553Z,235
2016-05-11T05:09:58.681Z,235
2016-05-11T05:10:58.637Z,240
2016-05-11T05:11:58.624Z,245
2016-05-11T05:12:58.611Z,250
2016-05-11T05:13:58.599Z,250
2016-05-11T05:14:58.601Z,255
2016-05-11T05:15:58.822Z,265
2016-05-11T05:16:58.544Z,265
2016-05-11T05:17:58.515Z,265
2016-05-11T05:18:59.018Z,270
2016-05-11T05:19:58.505Z,270
2016-05-11T05:20:58.460Z,275
2016-05-11T05:21:58.666Z,285
2016-05-11T05:22:58.560Z,295
2016-05-11T05:23:58.468Z,295
2016-05-11T05:24:58.425Z,300
2016-05-11T05:25:58.395Z,310
2016-05-11T05:26:58.055Z,315
2016-05-11T05:27:58.339Z,320
2016-05-11T05:28:58.326Z,325
2016-05-11T05:29:58.156Z,325
2016-05-11T05:30:58.723Z,325
2016-05-11T05:31:58.287Z,325
2016-05-11T05:32:58.290Z,330
2016-05-11T05:33:58.246Z,335
2016-05-11T05:34:58.061Z,335
2016-05-11T05:35:58.204Z,340
2016-05-11T05:36:58.191Z,340
2016-05-11T05:37:58.178Z,340
2016-05-11T05:38:58.009Z,345
2016-05-11T05:39:58.184Z,340
2016-05-11T05:40:57.952Z,345
2016-05-11T05:41:58.111Z,355
2016-05-11T05:42:57.927Z,365
2016-05-11T05:43:58.069Z,370
2016-05-11T05:44:58.135Z,375
2016-05-11T05:45:57.903Z,375
2016-05-11T05:46:57.999Z,375
2016-05-11T05:47:58.002Z,380
2016-05-11T05:48:57.989Z,380
2016-05-11T05:49:57.805Z,385
2016-05-11T05:50:57.948Z,385
2016-05-11T05:51:57.779Z,390
2016-05-11T05:52:57.609Z,400
2016-05-11T05:53:57.737Z,400
2016-05-11T05:54:57.880Z,400
2016-05-11T05:55:57.867Z,405
2016-05-11T05:56:57.682Z,415
2016-05-11T05:57:57.701Z,555
2016-05-11T05:58:57.672Z,780
2016-05-11T05:59:57.815Z,920
2016-05-11T06:00:58.928Z,940
2016-05-11T06:01:57.883Z,965
2016-05-11T06:02:57.762Z,975
2016-05-11T06:03:57.592Z,980
2016-05-11T06:04:57.751Z,1000
2016-05-11T06:05:57.706Z,990
2016-05-11T06:06:57.709Z,1035
2016-05-11T06:07:57.525Z,1035
2016-05-11T06:08:57.527Z,1060
2016-05-11T06:09:57.656Z,1075
2016-05-11T06:10:57.486Z,1080
2016-05-11T06:11:57.472Z,1100
2016-05-11T06:12:57.617Z,1090
2016-05-11T06:13:57.681Z,1125
2016-05-11T06:14:57.309Z,1145
2016-05-11T06:15:57.421Z,1140
2016-05-11T06:16:57.596Z,1155
2016-05-11T06:17:57.427Z,1185
2016-05-11T06:18:57.382Z,1200
2016-05-11T06:20:02.792Z,1210
2016-05-11T06:21:06.496Z,1195
2016-05-11T06:22:08.077Z,1200
2016-05-11T06:23:01.488Z,1210
2016-05-11T06:24:09.474Z,1210
2016-05-11T06:25:06.789Z,1235
2016-05-11T06:26:00.229Z,1270
2016-05-11T06:27:01.357Z,1290
2016-05-11T06:27:59.751Z,1295
2016-05-11T06:28:57.644Z,1295
2016-05-11T06:29:57.396Z,1270
2016-05-11T06:30:57.774Z,1240
2016-05-11T06:31:57.370Z,885
2016-05-11T06:32:57.358Z,510
2016-05-11T06:33:57.345Z,430
2016-05-11T06:34:57.192Z,425
2016-05-11T06:35:57.335Z,425
2016-05-11T06:36:57.322Z,490
2016-05-11T06:37:57.309Z,465
2016-05-11T06:38:57.139Z,420
2016-05-11T06:39:57.283Z,430
2016-05-11T06:40:57.254Z,445
2016-05-11T06:41:57.100Z,520
2016-05-11T06:42:57.244Z,870
2016-05-11T06:43:57.277Z,1260
2016-05-11T06:44:57.233Z,1480
2016-05-11T06:45:57.378Z,1455
2016-05-11T06:46:56.880Z,1425
2016-05-11T06:47:57.180Z,1400
2016-05-11T06:48:57.025Z,1310
2016-05-11T06:49:57.153Z,1300
2016-05-11T06:50:57.156Z,1400
2016-05-11T06:51:57.143Z,1445
2016-05-11T06:52:57.130Z,1470
2016-05-11T06:53:57.102Z,1430
2016-05-11T06:54:56.948Z,1435
2016-05-11T06:55:57.091Z,1495
2016-05-11T06:56:57.079Z,1495
2016-05-11T06:57:57.081Z,1545
2016-05-11T06:58:57.068Z,1590
2016-05-11T06:59:57.055Z,1595
2016-05-11T07:00:58.199Z,1535
2016-05-11T07:02:00.827Z,1525
2016-05-11T07:02:57.016Z,1585
2016-05-11T07:03:57.004Z,1590
2016-05-11T07:04:56.991Z,1580
2016-05-11T07:05:56.978Z,1575
2016-05-11T07:06:56.809Z,1565
2016-05-11T07:07:56.811Z,1515
2016-05-11T07:08:56.954Z,1515
2016-05-11T07:09:56.786Z,1590
2016-05-11T07:10:56.928Z,1630
2016-05-11T07:11:56.931Z,1545
2016-05-11T07:12:56.918Z,1470
2016-05-11T07:13:56.906Z,1380
2016-05-11T07:14:56.752Z,1285
2016-05-11T07:15:57.192Z,1210
2016-05-11T07:16:56.741Z,1160
2016-05-11T07:17:56.869Z,1095
2016-05-11T07:18:56.856Z,1050
2016-05-11T07:19:56.843Z,1005
2016-05-11T07:20:56.690Z,895
2016-05-11T07:21:56.880Z,865
2016-05-11T07:22:56.663Z,855
2016-05-11T07:23:56.666Z,845
2016-05-11T07:24:56.810Z,855
2016-05-11T07:25:56.640Z,965
2016-05-11T07:26:56.800Z,1520
2016-05-11T07:27:56.788Z,1915
2016-05-11T07:28:56.805Z,1735
2016-05-11T07:29:56.604Z,1855
2016-05-11T07:30:57.060Z,1955
2016-05-11T07:31:56.751Z,1860
2016-05-11T07:32:56.737Z,1810
2016-05-11T07:33:56.740Z,1970
2016-05-11T07:34:56.743Z,2060
2016-05-11T07:35:56.559Z,2125
2016-05-11T07:36:56.545Z,2200
2016-05-11T07:37:56.704Z,2250
2016-05-11T07:38:56.692Z,2190
2016-05-11T07:39:56.554Z,2120
2016-05-11T07:40:57.806Z,1990
2016-05-11T07:41:56.528Z,1890
2016-05-11T07:42:56.546Z,1910
2016-05-11T07:43:56.658Z,1905
2016-05-11T07:44:56.489Z,1830
2016-05-11T07:45:56.867Z,1880
2016-05-11T07:46:56.651Z,1965
2016-05-11T07:47:56.638Z,1980
2016-05-11T07:48:56.469Z,2025
2016-05-11T07:49:56.643Z,1960
2016-05-11T07:50:56.442Z,1960
2016-05-11T07:51:56.601Z,2005
2016-05-11T07:52:56.666Z,1915
2016-05-11T07:53:56.280Z,2020
2016-05-11T07:54:56.578Z,2035
2016-05-11T07:55:56.597Z,2100
2016-05-11T07:56:56.583Z,2115
2016-05-11T07:57:56.554Z,2040
2016-05-11T07:58:56.558Z,1965
2016-05-11T07:59:56.546Z,1880
2016-05-11T08:00:56.985Z,1905
2016-05-11T08:01:56.394Z,1965
2016-05-11T08:02:56.537Z,1940
2016-05-11T08:03:56.524Z,2065
2016-05-11T08:04:56.574Z,2060
2016-05-11T08:05:56.515Z,2160
2016-05-11T08:06:56.532Z,2145
2016-05-11T08:07:56.348Z,1975
2016-05-11T08:08:56.178Z,1955
2016-05-11T08:09:56.493Z,2085
2016-05-11T08:10:56.481Z,2145
2016-05-11T08:11:56.499Z,2100
2016-05-11T08:12:56.330Z,2125
2016-05-11T08:13:56.567Z,2150
2016-05-11T08:14:56.304Z,2150
2016-05-11T08:15:56.697Z,2220
2016-05-11T08:16:56.466Z,2290
2016-05-11T08:17:56.453Z,2290
2016-05-11T08:18:56.283Z,2170
2016-05-11T08:19:56.442Z,2180
2016-05-11T08:20:56.430Z,2200
2016-05-11T08:21:56.291Z,2250
2016-05-11T08:22:56.450Z,2300
2016-05-11T08:23:56.438Z,2370
2016-05-11T08:24:56.488Z,2410
2016-05-11T08:25:56.411Z,2430
2016-05-11T08:26:56.414Z,2520
2016-05-11T08:27:56.417Z,2425
2016-05-11T08:28:56.091Z,2315
2016-05-11T08:29:56.407Z,2330
2016-05-11T08:30:56.800Z,2270
2016-05-11T08:31:56.412Z,2320
2016-05-11T08:32:56.384Z,2350
2016-05-11T08:33:56.387Z,2510
2016-05-11T08:34:56.389Z,2385
2016-05-11T08:35:56.235Z,2365
2016-05-11T08:36:56.270Z,2420
2016-05-11T08:37:56.459Z,2405
2016-05-11T08:38:56.212Z,2460
2016-05-11T08:39:56.043Z,2585
2016-05-11T08:40:56.359Z,2565
2016-05-11T08:41:56.361Z,2505
2016-05-11T08:42:56.207Z,2465
2016-05-11T08:43:56.210Z,2510
2016-05-11T08:44:56.337Z,2445
2016-05-11T08:45:56.825Z,2405
2016-05-11T08:46:56.343Z,2445
2016-05-11T08:47:56.345Z,2450
2016-05-11T08:48:56.349Z,2310
2016-05-11T08:49:56.180Z,2115
2016-05-11T08:50:56.182Z,2370
2016-05-11T08:51:56.341Z,2480
2016-05-11T08:52:56.328Z,2440
2016-05-11T08:53:56.361Z,2505
2016-05-11T08:54:56.177Z,2510
2016-05-11T08:55:56.336Z,2495
2016-05-11T08:56:56.308Z,2470
2016-05-11T08:57:56.326Z,2250
2016-05-11T08:58:56.313Z,2165
2016-05-11T08:59:56.316Z,2265
2016-05-11T09:00:56.177Z,2335
2016-05-11T09:01:56.337Z,2405
2016-05-11T09:02:56.308Z,2380
2016-05-11T09:03:56.264Z,2255
2016-05-11T09:04:56.626Z,2345
2016-05-11T09:05:56.393Z,2550
2016-05-11T09:06:56.304Z,2625
2016-05-11T09:07:56.306Z,2680
2016-05-11T09:08:56.198Z,2630
2016-05-11T09:09:55.984Z,2575
2016-05-11T09:10:56.298Z,2475
2016-05-11T09:11:56.129Z,2390
2016-05-11T09:12:56.148Z,2340
2016-05-11T09:13:56.290Z,2200
2016-05-11T09:14:56.450Z,2210
2016-05-11T09:15:59.295Z,2335
2016-05-11T09:16:56.408Z,2455
2016-05-11T09:17:56.583Z,2415
2016-05-11T09:18:56.288Z,2380
2016-05-11T09:19:56.276Z,2550
2016-05-11T09:20:56.231Z,2665
2016-05-11T09:21:56.281Z,2570
2016-05-11T09:22:56.284Z,2430
2016-05-11T09:23:56.114Z,2465
2016-05-11T09:24:55.961Z,2515
2016-05-11T09:25:56.261Z,2460
2016-05-11T09:26:56.107Z,2185
2016-05-11T09:27:56.266Z,2375
2016-05-11T09:28:56.316Z,2445
2016-05-11T09:29:56.287Z,2565
2016-05-11T09:30:56.133Z,2615
2016-05-11T09:31:56.293Z,2575
2016-05-11T09:32:56.123Z,2585
2016-05-11T09:33:56.266Z,2740
2016-05-11T09:34:56.113Z,2805
2016-05-11T09:35:56.099Z,2705
2016-05-11T09:36:56.259Z,2785
2016-05-11T09:37:56.261Z,2740
2016-05-11T09:38:56.265Z,2765
2016-05-11T09:39:56.111Z,2715
2016-05-11T09:40:56.254Z,2645
2016-05-11T09:41:56.257Z,2635
2016-05-11T09:42:56.103Z,2670
2016-05-11T09:43:56.106Z,2680
2016-05-11T09:44:56.108Z,2695
2016-05-11T09:45:56.111Z,2775
2016-05-11T09:46:56.114Z,2710
2016-05-11T09:47:56.945Z,2655
2016-05-11T09:48:56.259Z,2635
2016-05-11T09:49:56.247Z,2635
2016-05-11T09:50:56.250Z,2550
2016-05-11T09:51:56.253Z,2325
2016-05-11T09:52:56.255Z,2415
2016-05-11T09:53:56.102Z,2530
2016-05-11T09:54:56.244Z,2540
2016-05-11T09:55:56.091Z,2725
2016-05-11T09:56:56.266Z,2685
2016-05-11T09:57:56.253Z,2625
2016-05-11T09:58:56.255Z,2650
2016-05-11T09:59:56.133Z,2735
2016-05-11T10:00:56.245Z,2850
2016-05-11T10:01:56.123Z,2850
2016-05-11T10:02:56.297Z,2830
2016-05-11T10:03:56.081Z,2815
2016-05-11T10:04:56.241Z,2685
2016-05-11T10:05:56.243Z,2510
2016-05-11T10:06:56.230Z,2520
2016-05-11T10:07:56.093Z,2690
2016-05-11T10:08:56.251Z,2740
2016-05-11T10:09:56.238Z,2790
2016-05-11T10:10:56.241Z,2800
2016-05-11T10:11:56.290Z,2825
2016-05-11T10:12:55.934Z,2800
2016-05-11T10:13:56.249Z,2755
2016-05-11T10:14:56.236Z,2785
2016-05-11T10:15:56.145Z,2770
2016-05-11T10:16:56.226Z,2715
2016-05-11T10:17:56.228Z,2765
2016-05-11T10:18:56.076Z,2900
2016-05-11T10:19:56.234Z,2855
2016-05-11T10:20:56.221Z,2825
2016-05-11T10:21:56.239Z,2880
2016-05-11T10:22:56.460Z,2865
2016-05-11T10:23:56.558Z,2880
2016-05-11T10:24:56.278Z,2870
2016-05-11T10:25:56.359Z,2900
2016-05-11T10:26:56.237Z,2875
2016-05-11T10:27:56.255Z,2445
2016-05-11T10:28:55.914Z,1320
2016-05-11T10:29:56.105Z,880
2016-05-11T10:30:56.794Z,880
2016-05-11T10:32:52.736Z,2180
2016-05-11T10:33:04.269Z,2405
2016-05-11T10:34:04.288Z,2875
2016-05-11T10:35:04.243Z,2585
2016-05-11T10:36:04.059Z,2735
2016-05-11T10:37:04.045Z,2970
2016-05-11T10:38:04.033Z,2960
2016-05-11T10:39:04.160Z,2950
2016-05-11T10:40:04.429Z,2950
2016-05-11T10:41:04.182Z,2890
2016-05-11T10:42:04.185Z,2870
2016-05-11T10:43:04.405Z,2865
2016-05-11T10:44:04.032Z,2855
2016-05-11T10:45:04.004Z,2760
2016-05-11T10:46:04.038Z,2775
2016-05-11T10:47:04.025Z,2775
2016-05-11T10:48:04.168Z,2795
2016-05-11T10:49:06.375Z,2975
2016-05-11T10:50:04.221Z,3060
2016-05-11T10:51:04.255Z,3045
2016-05-11T10:52:04.304Z,1875
2016-05-11T10:53:04.323Z,2940
2016-05-11T10:54:06.295Z,2915
2016-05-11T10:55:04.156Z,1235
2016-05-11T10:56:04.003Z,2960
2016-05-11T10:57:04.146Z,2940
2016-05-11T10:58:03.992Z,2785
2016-05-11T10:59:04.136Z,2775
2016-05-11T11:00:04.155Z,2740
2016-05-11T11:01:04.172Z,2665
2016-05-11T11:02:04.160Z,2900
2016-05-11T11:03:04.147Z,1365
2016-05-11T11:04:04.994Z,2080
2016-05-11T11:05:04.168Z,1575
2016-05-11T11:06:04.155Z,3025
2016-05-11T11:07:04.174Z,3045
2016-05-11T11:08:04.129Z,2985
2016-05-11T11:09:05.585Z,2940
2016-05-11T11:10:04.149Z,2820
2016-05-11T11:11:03.997Z,2785
2016-05-11T11:12:04.140Z,2835
2016-05-11T11:13:04.142Z,2760
2016-05-11T11:14:04.864Z,2880
2016-05-11T11:15:04.163Z,3020
2016-05-11T11:16:04.353Z,3085
2016-05-11T11:17:04.153Z,3115
2016-05-11T11:18:04.141Z,3195
2016-05-11T11:19:05.534Z,3120
2016-05-11T11:20:03.973Z,3105
2016-05-11T11:21:04.149Z,3145
2016-05-11T11:22:04.135Z,3165
2016-05-11T11:23:04.185Z,3115
2016-05-11T11:24:06.672Z,3065
2016-05-11T11:25:04.128Z,2810
2016-05-11T11:26:03.975Z,2950
2016-05-11T11:27:04.117Z,3025
2016-05-11T11:28:04.136Z,3035
2016-05-11T11:29:05.654Z,2985
2016-05-11T11:30:04.235Z,3150
2016-05-11T11:31:04.644Z,3320
2016-05-11T11:32:04.241Z,3135
2016-05-11T11:33:04.134Z,1145
2016-05-11T11:34:04.777Z,1250
2016-05-11T11:35:04.124Z,1175
2016-05-11T11:36:03.813Z,3300
2016-05-11T11:37:04.113Z,3220
2016-05-11T11:38:04.116Z,3080
2016-05-11T11:39:06.102Z,3190
2016-05-11T11:40:04.105Z,3105
2016-05-11T11:41:04.108Z,3180
2016-05-11T11:42:04.111Z,3295
2016-05-11T11:43:04.145Z,3125
2016-05-11T11:44:05.319Z,3095
2016-05-11T11:45:03.963Z,3055
2016-05-11T11:46:04.935Z,2975
2016-05-11T11:47:04.109Z,3050
2016-05-11T11:48:03.971Z,3060
2016-05-11T11:49:04.208Z,3040
2016-05-11T11:50:04.101Z,3035
2016-05-11T11:51:03.994Z,2950
2016-05-11T11:52:04.091Z,2945
2016-05-11T11:53:04.109Z,3050
2016-05-11T11:54:04.925Z,2905
2016-05-11T11:55:04.098Z,2885
2016-05-11T11:56:04.165Z,2940
2016-05-11T11:57:04.354Z,2995
2016-05-11T11:58:04.106Z,2920
2016-05-11T11:59:06.657Z,3090
2016-05-11T12:00:06.535Z,3185
2016-05-11T12:01:04.647Z,3135
2016-05-11T12:02:04.102Z,3115
2016-05-11T12:03:03.839Z,3105
2016-05-11T12:04:04.123Z,3115
2016-05-11T12:05:04.094Z,3220
2016-05-11T12:06:04.113Z,3220
2016-05-11T12:07:04.085Z,3165
2016-05-11T12:08:03.947Z,3050
2016-05-11T12:09:04.090Z,2990
2016-05-11T12:10:04.093Z,2995
2016-05-11T12:11:04.096Z,3050
2016-05-11T12:12:04.099Z,3160
2016-05-11T12:13:04.632Z,2960
2016-05-11T12:14:03.932Z,2915
2016-05-11T12:15:03.934Z,2980
2016-05-11T12:16:03.984Z,3045
2016-05-11T12:17:04.283Z,3105
2016-05-11T12:18:04.098Z,3050
2016-05-11T12:19:04.101Z,3065
2016-05-11T12:20:03.932Z,3240
2016-05-11T12:21:03.779Z,3190
2016-05-11T12:22:04.093Z,3175
2016-05-11T12:23:04.096Z,3070
2016-05-11T12:24:03.974Z,2950
2016-05-11T12:25:04.101Z,3120
2016-05-11T12:26:04.104Z,3250
2016-05-11T12:27:03.935Z,3110
2016-05-11T12:28:03.970Z,3045
2016-05-11T12:29:04.097Z,3205
2016-05-11T12:30:04.162Z,2985
2016-05-11T12:31:03.961Z,2630
2016-05-11T12:32:04.152Z,2695
2016-05-11T12:33:04.108Z,3085
2016-05-11T12:34:04.125Z,3010
2016-05-11T12:35:03.222Z,2975
2016-05-11T12:36:04.100Z,3095
2016-05-11T12:37:04.144Z,3025
2016-05-11T12:38:04.194Z,3130
2016-05-11T12:39:04.228Z,3190
2016-05-11T12:40:04.262Z,2975
2016-05-11T12:41:04.312Z,2775
2016-05-11T12:42:04.345Z,2875
2016-05-11T12:43:04.365Z,3080
2016-05-11T12:44:04.525Z,3135
2016-05-11T12:45:04.404Z,3100
2016-05-11T12:46:04.268Z,3035
2016-05-11T12:47:04.266Z,3075
2016-05-11T12:48:04.275Z,3095
2016-05-11T12:49:04.440Z,3020
2016-05-11T12:50:04.652Z,2910
2016-05-11T12:51:04.302Z,3115
2016-05-11T12:52:04.464Z,3080
2016-05-11T12:53:04.313Z,2990
2016-05-11T12:54:04.551Z,3175
2016-05-11T12:55:04.462Z,3145
2016-05-11T12:56:04.327Z,3110
2016-05-11T12:57:04.470Z,3030
2016-05-11T12:58:04.302Z,2970
2016-05-11T12:59:04.463Z,2975
2016-05-11T13:00:04.310Z,3045
2016-05-11T13:01:04.954Z,2935
2016-05-11T13:02:04.473Z,2880
2016-05-11T13:03:04.866Z,2945
2016-05-11T13:04:04.463Z,2935
2016-05-11T13:05:04.310Z,2860
2016-05-11T13:06:04.469Z,2820
2016-05-11T13:07:04.472Z,2790
2016-05-11T13:08:04.490Z,2680
2016-05-11T13:09:04.321Z,2750
2016-05-11T13:10:04.308Z,2865
2016-05-11T13:11:04.466Z,2890
2016-05-11T13:12:04.532Z,2815
2016-05-11T13:13:04.488Z,2820
2016-05-11T13:14:04.522Z,2815
2016-05-11T13:15:04.321Z,2765
2016-05-11T13:16:04.340Z,2745
2016-05-11T13:17:04.499Z,2760
2016-05-11T13:18:04.501Z,2820
2016-05-11T13:19:04.488Z,2715
2016-05-11T13:20:04.179Z,2730
2016-05-11T13:21:04.478Z,2655
2016-05-11T13:22:04.622Z,2150
2016-05-11T13:23:04.327Z,1215
2016-05-11T13:24:04.470Z,2735
2016-05-11T13:25:04.490Z,2760
2016-05-11T13:26:04.492Z,2855
2016-05-11T13:27:04.494Z,2870
2016-05-11T13:28:04.482Z,2830
2016-05-11T13:29:04.484Z,2790
2016-05-11T13:30:04.331Z,2570
2016-05-11T13:31:04.412Z,2545
2016-05-11T13:32:04.337Z,2765
2016-05-11T13:33:04.479Z,2710
2016-05-11T13:34:04.467Z,2715
2016-05-11T13:35:04.484Z,2780
2016-05-11T13:36:04.472Z,2775
2016-05-11T13:37:04.489Z,2795
2016-05-11T13:38:04.478Z,2850
2016-05-11T13:39:04.464Z,2895
2016-05-11T13:40:04.483Z,2905
2016-05-11T13:41:04.469Z,2980
2016-05-11T13:42:04.488Z,2950
2016-05-11T13:43:04.475Z,2860
2016-05-11T13:44:04.166Z,2785
2016-05-11T13:45:04.309Z,2790
2016-05-11T13:46:04.530Z,2780
2016-05-11T13:47:04.471Z,2880